RODN(METAR)
05/24 12:56
METAR RODN 240356Z AUTO 11003KT 10SM FEW150 SCT190 29/13 A3001 RMK
AO2 SLP168 T02920126 $=
戻る
トップページへ戻る
IMOC Co,.Ltd.